sensor_id;sensor_type;location;lat;lon;timestamp;pressure;altitude;pressure_sealevel;temperature;humidity
77281;BME280;66339;47.262;17.144;2023-10-09T00:01:08;101280.69;;;20.82;59.72
77281;BME280;66339;47.262;17.144;2023-10-09T00:03:40;101274.28;;;20.83;59.67
77281;BME280;66339;47.262;17.144;2023-10-09T00:06:09;101278.28;;;20.80;59.67
77281;BME280;66339;47.262;17.144;2023-10-09T00:08:37;101283.41;;;20.82;59.78
77281;BME280;66339;47.262;17.144;2023-10-09T00:11:14;101285.56;;;20.80;59.72
77281;BME280;66339;47.262;17.144;2023-10-09T00:13:42;101274.78;;;20.80;59.72
77281;BME280;66339;47.262;17.144;2023-10-09T00:16:22;101274.22;;;20.78;59.72
77281;BME280;66339;47.262;17.144;2023-10-09T00:18:50;101268.63;;;20.79;59.65
77281;BME280;66339;47.262;17.144;2023-10-09T00:21:19;101266.97;;;20.78;59.79
77281;BME280;66339;47.262;17.144;2023-10-09T00:23:52;101266.16;;;20.78;59.65
77281;BME280;66339;47.262;17.144;2023-10-09T00:26:22;101266.16;;;20.78;59.72
77281;BME280;66339;47.262;17.144;2023-10-09T00:28:49;101269.12;;;20.76;59.51
77281;BME280;66339;47.262;17.144;2023-10-09T00:31:19;101269.94;;;20.77;59.89
77281;BME280;66339;47.262;17.144;2023-10-09T00:33:50;101257.56;;;20.76;59.68
77281;BME280;66339;47.262;17.144;2023-10-09T00:36:23;101261.31;;;20.75;59.84
77281;BME280;66339;47.262;17.144;2023-10-09T00:38:53;101266.69;;;20.75;59.62
77281;BME280;66339;47.262;17.144;2023-10-09T00:41:20;101268.31;;;20.76;59.56
77281;BME280;66339;47.262;17.144;2023-10-09T00:43:51;101264.56;;;20.77;59.50
77281;BME280;66339;47.262;17.144;2023-10-09T00:46:23;101255.94;;;20.75;59.55
77281;BME280;66339;47.262;17.144;2023-10-09T00:48:53;101246.00;;;20.75;59.54
77281;BME280;66339;47.262;17.144;2023-10-09T00:51:20;101243.31;;;20.75;59.60
77281;BME280;66339;47.262;17.144;2023-10-09T00:53:49;101238.19;;;20.74;59.61
77281;BME280;66339;47.262;17.144;2023-10-09T00:56:25;101230.41;;;20.72;59.70
77281;BME280;66339;47.262;17.144;2023-10-09T00:59:02;101235.50;;;20.74;59.42
77281;BME280;66339;47.262;17.144;2023-10-09T01:01:29;101221.25;;;20.73;59.40
77281;BME280;66339;47.262;17.144;2023-10-09T01:04:01;101222.06;;;20.74;59.54
77281;BME280;66339;47.262;17.144;2023-10-09T01:06:31;101220.44;;;20.73;59.52
77281;BME280;66339;47.262;17.144;2023-10-09T01:09:01;101218.84;;;20.72;59.50
77281;BME280;66339;47.262;17.144;2023-10-09T01:11:34;101211.81;;;20.71;59.51
77281;BME280;66339;47.262;17.144;2023-10-09T01:14:04;101211.81;;;20.71;59.50
77281;BME280;66339;47.262;17.144;2023-10-09T01:16:33;101216.16;;;20.72;59.57
77281;BME280;66339;47.262;17.144;2023-10-09T01:19:00;101218.84;;;20.72;59.38
77281;BME280;66339;47.262;17.144;2023-10-09T01:21:28;101231.72;;;20.70;59.63
77281;BME280;66339;47.262;17.144;2023-10-09T01:24:01;101227.16;;;20.70;59.61
77281;BME280;66339;47.262;17.144;2023-10-09T01:26:32;101225.25;;;20.71;59.38
77281;BME280;66339;47.262;17.144;2023-10-09T01:28:59;101229.84;;;20.70;59.55
77281;BME280;66339;47.262;17.144;2023-10-09T01:31:26;101233.31;;;20.71;59.33
77281;BME280;66339;47.262;17.144;2023-10-09T01:33:57;101231.72;;;20.70;59.46
77281;BME280;66339;47.262;17.144;2023-10-09T01:36:27;101218.56;;;20.68;59.55
77281;BME280;66339;47.262;17.144;2023-10-09T01:38:54;101223.94;;;20.68;59.62
77281;BME280;66339;47.262;17.144;2023-10-09T01:41:21;101205.34;;;20.67;59.52
77281;BME280;66339;47.262;17.144;2023-10-09T01:43:48;101209.69;;;20.68;59.45
77281;BME280;66339;47.262;17.144;2023-10-09T01:46:18;101206.19;;;20.67;59.59
77281;BME280;66339;47.262;17.144;2023-10-09T01:48:45;101211.28;;;20.69;59.60
77281;BME280;66339;47.262;17.144;2023-10-09T01:51:15;101207.00;;;20.68;59.48
77281;BME280;66339;47.262;17.144;2023-10-09T01:53:45;101207.00;;;20.68;59.51
77281;BME280;66339;47.262;17.144;2023-10-09T01:56:17;101200.81;;;20.67;59.58
77281;BME280;66339;47.262;17.144;2023-10-09T01:58:47;101198.38;;;20.66;59.46
77281;BME280;66339;47.262;17.144;2023-10-09T02:01:17;101194.59;;;20.67;59.54
77281;BME280;66339;47.262;17.144;2023-10-09T02:03:47;101185.72;;;20.66;59.55
77281;BME280;66339;47.262;17.144;2023-10-09T02:06:14;101186.81;;;20.65;59.33
77281;BME280;66339;47.262;17.144;2023-10-09T02:08:47;101176.84;;;20.66;59.38
77281;BME280;66339;47.262;17.144;2023-10-09T02:11:14;101168.25;;;20.64;59.52
77281;BME280;66339;47.262;17.144;2023-10-09T02:13:44;101152.13;;;20.64;59.47
77281;BME280;66339;47.262;17.144;2023-10-09T02:16:14;101157.50;;;20.64;59.52
77281;BME280;66339;47.262;17.144;2023-10-09T02:18:41;101172.81;;;20.63;59.48
77281;BME280;66339;47.262;17.144;2023-10-09T02:21:08;101177.38;;;20.63;59.45
77281;BME280;66339;47.262;17.144;2023-10-09T02:23:35;101177.38;;;20.63;59.50
77281;BME280;66339;47.262;17.144;2023-10-09T02:26:06;101172.81;;;20.63;59.46
77281;BME280;66339;47.262;17.144;2023-10-09T02:28:37;101161.25;;;20.63;59.50
77281;BME280;66339;47.262;17.144;2023-10-09T02:31:13;101170.41;;;20.62;59.38
77281;BME280;66339;47.262;17.144;2023-10-09T02:33:40;101177.66;;;20.61;59.40
77281;BME280;66339;47.262;17.144;2023-10-09T02:36:13;101186.53;;;20.62;59.44
77281;BME280;66339;47.262;17.144;2023-10-09T02:38:52;101181.16;;;20.62;59.27
77281;BME280;66339;47.262;17.144;2023-10-09T02:41:22;101165.00;;;20.62;59.35
77281;BME280;66339;47.262;17.144;2023-10-09T02:43:49;101158.84;;;20.61;59.36
77281;BME280;66339;47.262;17.144;2023-10-09T02:46:18;101158.03;;;20.61;59.46
77281;BME280;66339;47.262;17.144;2023-10-09T02:48:48;101152.66;;;20.61;59.32
77281;BME280;66339;47.262;17.144;2023-10-09T02:51:26;101160.97;;;20.59;59.52
77281;BME280;66339;47.262;17.144;2023-10-09T02:53:59;101146.72;;;20.58;59.59
77281;BME280;66339;47.262;17.144;2023-10-09T02:56:27;101139.47;;;20.59;59.36
77281;BME280;66339;47.262;17.144;2023-10-09T02:58:54;101134.34;;;20.57;59.43
77281;BME280;66339;47.262;17.144;2023-10-09T03:01:25;101137.06;;;20.57;59.51
77281;BME280;66339;47.262;17.144;2023-10-09T03:03:58;101131.69;;;20.57;59.68
77281;BME280;66339;47.262;17.144;2023-10-09T03:06:28;101119.31;;;20.56;59.55
77281;BME280;66339;47.262;17.144;2023-10-09T03:09:01;101126.56;;;20.56;59.58
77281;BME280;66339;47.262;17.144;2023-10-09T03:11:34;101127.38;;;20.56;59.39
77281;BME280;66339;47.262;17.144;2023-10-09T03:14:01;101116.62;;;20.56;59.60
77281;BME280;66339;47.262;17.144;2023-10-09T03:16:31;101119.31;;;20.56;59.48
77281;BME280;66339;47.262;17.144;2023-10-09T03:19:03;101130.06;;;20.56;59.36
77281;BME280;66339;47.262;17.144;2023-10-09T03:21:34;101117.72;;;20.55;59.38
77281;BME280;66339;47.262;17.144;2023-10-09T03:24:04;101119.31;;;20.56;59.45
77281;BME280;66339;47.262;17.144;2023-10-09T03:26:34;101109.66;;;20.55;59.28
77281;BME280;66339;47.262;17.144;2023-10-09T03:29:01;101090.84;;;20.55;59.31
77281;BME280;66339;47.262;17.144;2023-10-09T03:31:31;101085.44;;;20.55;59.38
77281;BME280;66339;47.262;17.144;2023-10-09T03:34:02;101074.72;;;20.55;59.39
77281;BME280;66339;47.262;17.144;2023-10-09T03:36:35;101090.84;;;20.55;59.43
77281;BME280;66339;47.262;17.144;2023-10-09T03:39:02;101101.31;;;20.57;59.27
77281;BME280;66339;47.262;17.144;2023-10-09T03:41:32;101087.06;;;20.56;59.39
77281;BME280;66339;47.262;17.144;2023-10-09T03:44:03;101076.31;;;20.56;59.56
77281;BME280;66339;47.262;17.144;2023-10-09T03:46:33;101076.03;;;20.58;59.33
77281;BME280;66339;47.262;17.144;2023-10-09T03:49:06;101077.41;;;20.61;59.35
77281;BME280;66339;47.262;17.144;2023-10-09T03:51:33;101092.16;;;20.58;59.32
77281;BME280;66339;47.262;17.144;2023-10-09T03:54:06;101091.91;;;20.59;59.41
77281;BME280;66339;47.262;17.144;2023-10-09T03:56:37;101075.22;;;20.57;59.43
77281;BME280;66339;47.262;17.144;2023-10-09T03:59:06;101075.50;;;20.56;59.51
77281;BME280;66339;47.262;17.144;2023-10-09T04:01:39;101054.00;;;20.56;59.38
77281;BME280;66339;47.262;17.144;2023-10-09T04:04:11;101050.50;;;20.55;59.42
77281;BME280;66339;47.262;17.144;2023-10-09T04:06:45;101043.25;;;20.56;59.53
77281;BME280;66339;47.262;17.144;2023-10-09T04:09:12;101040.81;;;20.54;59.68
77281;BME280;66339;47.262;17.144;2023-10-09T04:11:39;101058.56;;;20.55;59.49
77281;BME280;66339;47.262;17.144;2023-10-09T04:14:13;101055.88;;;20.55;59.46
77281;BME280;66339;47.262;17.144;2023-10-09T04:16:46;101049.97;;;20.53;59.55
77281;BME280;66339;47.262;17.144;2023-10-09T04:19:15;101053.22;;;20.55;59.78
77281;BME280;66339;47.262;17.144;2023-10-09T04:21:45;101053.22;;;20.55;59.52
77281;BME280;66339;47.262;17.144;2023-10-09T04:24:15;101039.22;;;20.53;59.54
77281;BME280;66339;47.262;17.144;2023-10-09T04:26:48;101025.78;;;20.53;59.55
77281;BME280;66339;47.262;17.144;2023-10-09T04:29:19;101017.72;;;20.53;59.45
77281;BME280;66339;47.262;17.144;2023-10-09T04:31:46;101024.69;;;20.54;59.01
77281;BME280;66339;47.262;17.144;2023-10-09T04:34:17;101026.84;;;20.52;58.75
77281;BME280;66339;47.262;17.144;2023-10-09T04:36:45;101021.47;;;20.52;57.93
77281;BME280;66339;47.262;17.144;2023-10-09T04:39:19;101020.69;;;20.52;57.52
77281;BME280;66339;47.262;17.144;2023-10-09T04:41:48;101011.50;;;20.48;57.11
77281;BME280;66339;47.262;17.144;2023-10-09T04:44:19;101010.94;;;20.46;56.82
77281;BME280;66339;47.262;17.144;2023-10-09T04:46:51;101000.19;;;20.46;57.58
77281;BME280;66339;47.262;17.144;2023-10-09T04:49:21;100994.31;;;20.49;58.29
77281;BME280;66339;47.262;17.144;2023-10-09T04:51:51;100990.03;;;20.53;58.30
77281;BME280;66339;47.262;17.144;2023-10-09T04:54:22;100997.28;;;20.57;58.31
77281;BME280;66339;47.262;17.144;2023-10-09T04:56:49;100986.53;;;20.57;58.43
77281;BME280;66339;47.262;17.144;2023-10-09T04:59:21;100997.84;;;20.59;58.50
77281;BME280;66339;47.262;17.144;2023-10-09T05:01:52;101002.13;;;20.61;58.52
77281;BME280;66339;47.262;17.144;2023-10-09T05:04:27;100998.38;;;20.62;58.50
77281;BME280;66339;47.262;17.144;2023-10-09T05:06:54;100991.91;;;20.63;58.65
77281;BME280;66339;47.262;17.144;2023-10-09T05:09:24;100998.66;;;20.65;58.73
77281;BME280;66339;47.262;17.144;2023-10-09T05:11:56;100995.16;;;20.65;58.74
77281;BME280;66339;47.262;17.144;2023-10-09T05:14:24;100993.00;;;20.67;58.63
77281;BME280;66339;47.262;17.144;2023-10-09T05:16:51;100973.38;;;20.66;58.72
77281;BME280;66339;47.262;17.144;2023-10-09T05:19:22;100969.63;;;20.67;58.71
77281;BME280;66339;47.262;17.144;2023-10-09T05:21:53;100962.37;;;20.68;58.72
77281;BME280;66339;47.262;17.144;2023-10-09T05:24:22;100959.69;;;20.68;58.71
77281;BME280;66339;47.262;17.144;2023-10-09T05:26:50;100954.56;;;20.66;58.71
77281;BME280;66339;47.262;17.144;2023-10-09T05:29:19;100949.97;;;20.67;58.90
77281;BME280;66339;47.262;17.144;2023-10-09T05:31:48;100946.50;;;20.66;58.95
77281;BME280;66339;47.262;17.144;2023-10-09T05:34:15;100961.81;;;20.66;58.94
77281;BME280;66339;47.262;17.144;2023-10-09T05:36:42;100953.75;;;20.66;58.92
77281;BME280;66339;47.262;17.144;2023-10-09T05:39:10;100963.97;;;20.64;59.26
77281;BME280;66339;47.262;17.144;2023-10-09T05:41:38;100961.81;;;20.66;59.37
77281;BME280;66339;47.262;17.144;2023-10-09T05:44:08;100961.28;;;20.64;59.48
77281;BME280;66339;47.262;17.144;2023-10-09T05:46:38;100960.47;;;20.63;59.59
77281;BME280;66339;47.262;17.144;2023-10-09T05:49:06;100963.97;;;20.64;59.67
77281;BME280;66339;47.262;17.144;2023-10-09T05:51:33;100965.59;;;20.65;59.88
77281;BME280;66339;47.262;17.144;2023-10-09T05:54:01;100956.44;;;20.66;60.06
77281;BME280;66339;47.262;17.144;2023-10-09T05:56:28;100948.38;;;20.66;60.22
77281;BME280;66339;47.262;17.144;2023-10-09T05:58:59;100952.66;;;20.67;60.32
77281;BME280;66339;47.262;17.144;2023-10-09T06:01:31;100955.34;;;20.67;60.39
77281;BME280;66339;47.262;17.144;2023-10-09T06:03:58;100955.09;;;20.68;60.44
77281;BME280;66339;47.262;17.144;2023-10-09T06:06:26;100948.94;;;20.68;60.32
77281;BME280;66339;47.262;17.144;2023-10-09T06:08:57;100935.75;;;20.66;60.59
77281;BME280;66339;47.262;17.144;2023-10-09T06:11:24;100945.16;;;20.69;60.40
77281;BME280;66339;47.262;17.144;2023-10-09T06:13:52;100927.44;;;20.68;60.20
77281;BME280;66339;47.262;17.144;2023-10-09T06:16:19;100920.41;;;20.67;60.32
77281;BME280;66339;47.262;17.144;2023-10-09T06:18:50;100922.06;;;20.68;60.35
77281;BME280;66339;47.262;17.144;2023-10-09T06:21:21;100926.34;;;20.69;60.61
77281;BME280;66339;47.262;17.144;2023-10-09T06:23:48;100929.03;;;20.69;60.72
77281;BME280;66339;47.262;17.144;2023-10-09T06:26:19;100919.88;;;20.70;60.76
77281;BME280;66339;47.262;17.144;2023-10-09T06:28:46;100925.25;;;20.70;60.79
77281;BME280;66339;47.262;17.144;2023-10-09T06:31:18;100923.12;;;20.72;60.84
77281;BME280;66339;47.262;17.144;2023-10-09T06:33:49;100912.38;;;20.72;60.80
77281;BME280;66339;47.262;17.144;2023-10-09T06:36:20;100908.59;;;20.73;60.79
77281;BME280;66339;47.262;17.144;2023-10-09T06:38:50;100913.19;;;20.72;60.93
77281;BME280;66339;47.262;17.144;2023-10-09T06:41:18;100904.03;;;20.73;60.87
77281;BME280;66339;47.262;17.144;2023-10-09T06:43:48;100904.81;;;20.74;60.97
77281;BME280;66339;47.262;17.144;2023-10-09T06:46:16;100904.81;;;20.74;60.92
77281;BME280;66339;47.262;17.144;2023-10-09T06:48:43;100909.13;;;20.75;60.93
77281;BME280;66339;47.262;17.144;2023-10-09T06:51:19;100895.69;;;20.75;61.02
77281;BME280;66339;47.262;17.144;2023-10-09T06:53:46;100888.16;;;20.77;61.01
77281;BME280;66339;47.262;17.144;2023-10-09T06:56:13;100888.16;;;20.77;60.93
77281;BME280;66339;47.262;17.144;2023-10-09T06:58:54;100879.31;;;20.76;60.89
77281;BME280;66339;47.262;17.144;2023-10-09T07:01:25;100876.63;;;20.76;60.77
77281;BME280;66339;47.262;17.144;2023-10-09T07:04:00;100873.38;;;20.74;60.70
77281;BME280;66339;47.262;17.144;2023-10-09T07:06:27;100867.19;;;20.74;60.74
77281;BME280;66339;47.262;17.144;2023-10-09T07:08:55;100871.22;;;20.76;60.72
77281;BME280;66339;47.262;17.144;2023-10-09T07:11:25;100859.69;;;20.76;60.74
77281;BME280;66339;47.262;17.144;2023-10-09T07:13:53;100868.81;;;20.75;60.78
77281;BME280;66339;47.262;17.144;2023-10-09T07:16:28;100862.38;;;20.76;60.74
77281;BME280;66339;47.262;17.144;2023-10-09T07:18:56;100856.44;;;20.74;60.72
77281;BME280;66339;47.262;17.144;2023-10-09T07:21:23;100856.44;;;20.74;60.58
77281;BME280;66339;47.262;17.144;2023-10-09T07:23:58;100861.00;;;20.73;60.58
77281;BME280;66339;47.262;17.144;2023-10-09T07:26:32;100846.78;;;20.73;60.53
77281;BME280;66339;47.262;17.144;2023-10-09T07:28:59;100842.47;;;20.72;60.36
77281;BME280;66339;47.262;17.144;2023-10-09T07:31:27;100831.72;;;20.72;60.55
77281;BME280;66339;47.262;17.144;2023-10-09T07:33:57;100819.34;;;20.71;60.54
77281;BME280;66339;47.262;17.144;2023-10-09T07:36:25;100820.19;;;20.71;60.46
77281;BME280;66339;47.262;17.144;2023-10-09T07:38:56;100805.66;;;20.72;60.54
77281;BME280;66339;47.262;17.144;2023-10-09T07:41:23;100818.28;;;20.72;60.53
77281;BME280;66339;47.262;17.144;2023-10-09T07:43:56;100808.59;;;20.71;60.47
77281;BME280;66339;47.262;17.144;2023-10-09T07:46:23;100820.19;;;20.71;60.48
77281;BME280;66339;47.262;17.144;2023-10-09T07:48:51;100811.81;;;20.73;60.43
77281;BME280;66339;47.262;17.144;2023-10-09T07:51:21;100804.84;;;20.72;60.35
77281;BME280;66339;47.262;17.144;2023-10-09T07:53:53;100802.41;;;20.70;60.37
77281;BME280;66339;47.262;17.144;2023-10-09T07:56:23;100807.00;;;20.70;60.38
77281;BME280;66339;47.262;17.144;2023-10-09T07:58:56;100801.59;;;20.70;60.30
77281;BME280;66339;47.262;17.144;2023-10-09T08:01:29;100798.12;;;20.69;60.24
77281;BME280;66339;47.262;17.144;2023-10-09T08:04:00;100793.53;;;20.70;60.29
77281;BME280;66339;47.262;17.144;2023-10-09T08:06:30;100789.25;;;20.69;60.26
77281;BME280;66339;47.262;17.144;2023-10-09T08:08:57;100777.41;;;20.70;60.21
77281;BME280;66339;47.262;17.144;2023-10-09T08:11:24;100786.28;;;20.70;60.28
77281;BME280;66339;47.262;17.144;2023-10-09T08:13:51;100774.72;;;20.70;60.27
77281;BME280;66339;47.262;17.144;2023-10-09T08:16:18;100763.97;;;20.70;60.30
77281;BME280;66339;47.262;17.144;2023-10-09T08:18:48;100770.97;;;20.71;60.24
77281;BME280;66339;47.262;17.144;2023-10-09T08:21:18;100763.97;;;20.70;60.25
77281;BME280;66339;47.262;17.144;2023-10-09T08:23:52;100766.41;;;20.71;60.20
77281;BME280;66339;47.262;17.144;2023-10-09T08:26:19;100763.97;;;20.70;60.22
77281;BME280;66339;47.262;17.144;2023-10-09T08:28:50;100754.81;;;20.71;60.17
77281;BME280;66339;47.262;17.144;2023-10-09T08:31:20;100739.78;;;20.70;60.11
77281;BME280;66339;47.262;17.144;2023-10-09T08:33:47;100741.69;;;20.69;60.05
77281;BME280;66339;47.262;17.144;2023-10-09T08:36:17;100745.16;;;20.70;60.08
77281;BME280;66339;47.262;17.144;2023-10-09T08:38:46;100744.06;;;20.71;60.01
77281;BME280;66339;47.262;17.144;2023-10-09T08:41:13;100744.06;;;20.71;60.03
77281;BME280;66339;47.262;17.144;2023-10-09T08:43:47;100726.34;;;20.70;60.01
77281;BME280;66339;47.262;17.144;2023-10-09T08:46:15;100733.31;;;20.71;60.05
77281;BME280;66339;47.262;17.144;2023-10-09T08:48:46;100724.22;;;20.72;59.94
77281;BME280;66339;47.262;17.144;2023-10-09T08:51:22;100723.41;;;20.71;59.90
77281;BME280;66339;47.262;17.144;2023-10-09T08:53:52;100729.84;;;20.70;59.91
77281;BME280;66339;47.262;17.144;2023-10-09T08:56:22;100719.88;;;20.71;59.84
77281;BME280;66339;47.262;17.144;2023-10-09T08:58:56;100712.66;;;20.71;59.79
77281;BME280;66339;47.262;17.144;2023-10-09T09:01:26;100718.84;;;20.72;59.73
77281;BME280;66339;47.262;17.144;2023-10-09T09:03:53;100720.97;;;20.70;59.76
77281;BME280;66339;47.262;17.144;2023-10-09T09:06:21;100715.59;;;20.70;59.71
77281;BME280;66339;47.262;17.144;2023-10-09T09:08:53;100697.87;;;20.69;59.75
77281;BME280;66339;47.262;17.144;2023-10-09T09:11:26;100692.50;;;20.69;59.65
77281;BME280;66339;47.262;17.144;2023-10-09T09:16:30;100672.59;;;20.70;59.72
77281;BME280;66339;47.262;17.144;2023-10-09T09:19:02;100668.31;;;20.69;59.75
77281;BME280;66339;47.262;17.144;2023-10-09T09:21:36;100674.47;;;20.69;59.74
77281;BME280;66339;47.262;17.144;2023-10-09T09:24:04;100668.31;;;20.69;59.66
77281;BME280;66339;47.262;17.144;2023-10-09T09:26:38;100671.78;;;20.69;59.62
77281;BME280;66339;47.262;17.144;2023-10-09T09:29:12;100671.00;;;20.69;59.65
77281;BME280;66339;47.262;17.144;2023-10-09T09:31:55;100668.00;;;20.70;59.68
77281;BME280;66339;47.262;17.144;2023-10-09T09:34:25;100666.41;;;20.69;59.66
77281;BME280;66339;47.262;17.144;2023-10-09T09:36:59;100663.44;;;20.71;59.48
77281;BME280;66339;47.262;17.144;2023-10-09T09:39:31;100655.38;;;20.71;59.52
77281;BME280;66339;47.262;17.144;2023-10-09T09:42:14;100665.06;;;20.72;59.59
77281;BME280;66339;47.262;17.144;2023-10-09T09:44:42;100657.00;;;20.72;59.48
77281;BME280;66339;47.262;17.144;2023-10-09T09:47:15;100658.59;;;20.73;59.63
77281;BME280;66339;47.262;17.144;2023-10-09T09:49:43;100649.75;;;20.72;59.68
77281;BME280;66339;47.262;17.144;2023-10-09T09:52:14;100654.84;;;20.74;59.79
77281;BME280;66339;47.262;17.144;2023-10-09T09:54:44;100645.16;;;20.73;59.75
77281;BME280;66339;47.262;17.144;2023-10-09T09:57:13;100645.16;;;20.73;59.54
77281;BME280;66339;47.262;17.144;2023-10-09T09:59:44;100646.78;;;20.74;59.68
77281;BME280;66339;47.262;17.144;2023-10-09T10:02:27;100641.13;;;20.75;59.85
77281;BME280;66339;47.262;17.144;2023-10-09T10:05:05;100632.25;;;20.75;59.92
77281;BME280;66339;47.262;17.144;2023-10-09T10:07:37;100634.94;;;20.75;59.95
77281;BME280;66339;47.262;17.144;2023-10-09T10:10:42;100632.25;;;20.75;60.17
77281;BME280;66339;47.262;17.144;2023-10-09T10:13:11;100623.91;;;20.76;60.24
77281;BME280;66339;47.262;17.144;2023-10-09T10:16:05;100622.03;;;20.77;60.07
77281;BME280;66339;47.262;17.144;2023-10-09T10:18:52;100619.34;;;20.77;60.33
77281;BME280;66339;47.262;17.144;2023-10-09T10:21:32;100608.59;;;20.77;60.42
77281;BME280;66339;47.262;17.144;2023-10-09T10:24:03;100608.59;;;20.77;60.54
77281;BME280;66339;47.262;17.144;2023-10-09T10:26:33;100599.44;;;20.78;60.60
77281;BME280;66339;47.262;17.144;2023-10-09T10:29:18;100595.69;;;20.79;60.76
77281;BME280;66339;47.262;17.144;2023-10-09T10:31:56;100594.06;;;20.78;61.08
77281;BME280;66339;47.262;17.144;2023-10-09T10:34:25;100591.91;;;20.80;61.24
77281;BME280;66339;47.262;17.144;2023-10-09T10:36:55;100592.16;;;20.83;61.31
77281;BME280;66339;47.262;17.144;2023-10-09T10:39:24;100590.78;;;20.86;60.88
77281;BME280;66339;47.262;17.144;2023-10-09T10:41:59;100587.03;;;20.87;60.75
77281;BME280;66339;47.262;17.144;2023-10-09T10:44:33;100588.63;;;20.88;60.65
77281;BME280;66339;47.262;17.144;2023-10-09T10:47:06;100587.84;;;20.88;60.59
77281;BME280;66339;47.262;17.144;2023-10-09T10:49:42;100596.69;;;20.88;60.53
77281;BME280;66339;47.262;17.144;2023-10-09T10:52:22;100590.22;;;20.89;60.49
77281;BME280;66339;47.262;17.144;2023-10-09T10:54:53;100570.91;;;20.87;60.52
77281;BME280;66339;47.262;17.144;2023-10-09T10:57:24;100573.31;;;20.89;60.46
77281;BME280;66339;47.262;17.144;2023-10-09T10:59:58;100571.69;;;20.88;60.47
77281;BME280;66339;47.262;17.144;2023-10-09T11:02:25;100573.31;;;20.89;60.45
77281;BME280;66339;47.262;17.144;2023-10-09T11:04:52;100572.50;;;20.88;60.51
77281;BME280;66339;47.262;17.144;2023-10-09T11:07:22;100580.56;;;20.88;60.56
77281;BME280;66339;47.262;17.144;2023-10-09T11:09:54;100587.84;;;20.88;60.58
77281;BME280;66339;47.262;17.144;2023-10-09T11:12:21;100594.28;;;20.87;60.62
77281;BME280;66339;47.262;17.144;2023-10-09T11:14:50;100593.22;;;20.88;60.56
77281;BME280;66339;47.262;17.144;2023-10-09T11:17:17;100594.00;;;20.88;60.65
77281;BME280;66339;47.262;17.144;2023-10-09T11:19:48;100591.31;;;20.88;60.72
77281;BME280;66339;47.262;17.144;2023-10-09T11:22:15;100597.78;;;20.87;60.84
77281;BME280;66339;47.262;17.144;2023-10-09T11:24:46;100592.66;;;20.91;60.87
77281;BME280;66339;47.262;17.144;2023-10-09T11:27:15;100596.16;;;20.91;60.99
77281;BME280;66339;47.262;17.144;2023-10-09T11:29:51;100592.38;;;20.92;61.08
77281;BME280;66339;47.262;17.144;2023-10-09T11:32:22;100590.47;;;20.93;61.22
77281;BME280;66339;47.262;17.144;2023-10-09T11:35:09;100591.28;;;20.93;61.44
77281;BME280;66339;47.262;17.144;2023-10-09T11:37:39;100582.94;;;20.95;61.53
77281;BME280;66339;47.262;17.144;2023-10-09T11:40:14;100590.19;;;20.94;61.49
77281;BME280;66339;47.262;17.144;2023-10-09T11:43:00;100583.75;;;20.95;61.11
77281;BME280;66339;47.262;17.144;2023-10-09T11:45:30;100567.62;;;20.95;60.91
77281;BME280;66339;47.262;17.144;2023-10-09T11:47:58;100566.81;;;20.95;60.99
77281;BME280;66339;47.262;17.144;2023-10-09T11:53:10;100570.03;;;20.97;61.19
77281;BME280;66339;47.262;17.144;2023-10-09T11:55:37;100560.06;;;20.97;61.15
77281;BME280;66339;47.262;17.144;2023-10-09T11:58:07;100560.06;;;20.97;61.35
77281;BME280;66339;47.262;17.144;2023-10-09T12:00:37;100554.69;;;20.97;62.31
77281;BME280;66339;47.262;17.144;2023-10-09T12:03:11;100560.31;;;21.01;62.94
77281;BME280;66339;47.262;17.144;2023-10-09T12:05:38;100550.34;;;21.01;63.02
77281;BME280;66339;47.262;17.144;2023-10-09T12:08:09;100544.97;;;21.01;62.85
77281;BME280;66339;47.262;17.144;2023-10-09T12:10:36;100539.59;;;21.01;62.79
77281;BME280;66339;47.262;17.144;2023-10-09T12:13:09;100535.31;;;21.00;62.60
77281;BME280;66339;47.262;17.144;2023-10-09T12:15:40;100547.66;;;21.01;62.43
77281;BME280;66339;47.262;17.144;2023-10-09T12:18:19;100531.03;;;20.99;62.27
77281;BME280;66339;47.262;17.144;2023-10-09T12:20:46;100537.19;;;21.00;62.09
77281;BME280;66339;47.262;17.144;2023-10-09T12:23:17;100532.06;;;20.98;62.05
77281;BME280;66339;47.262;17.144;2023-10-09T12:25:45;100532.06;;;20.98;61.99
77281;BME280;66339;47.262;17.144;2023-10-09T12:28:18;100533.97;;;20.98;61.85
77281;BME280;66339;47.262;17.144;2023-10-09T12:30:45;100531.56;;;20.96;61.88
77281;BME280;66339;47.262;17.144;2023-10-09T12:33:12;100529.69;;;20.97;61.70
77281;BME280;66339;47.262;17.144;2023-10-09T12:35:43;100520.81;;;20.96;62.10
77281;BME280;66339;47.262;17.144;2023-10-09T12:38:11;100523.50;;;20.96;62.24
77281;BME280;66339;47.262;17.144;2023-10-09T12:40:39;100515.72;;;20.95;62.14
77281;BME280;66339;47.262;17.144;2023-10-09T12:43:06;100514.91;;;20.94;62.10
77281;BME280;66339;47.262;17.144;2023-10-09T12:45:36;100511.41;;;20.94;62.12
77281;BME280;66339;47.262;17.144;2023-10-09T12:48:05;100510.63;;;20.93;61.95
77281;BME280;66339;47.262;17.144;2023-10-09T12:50:36;100516.00;;;20.93;61.92
77281;BME280;66339;47.262;17.144;2023-10-09T12:53:03;100516.78;;;20.94;61.89
77281;BME280;66339;47.262;17.144;2023-10-09T12:55:42;100522.97;;;20.94;61.78
77281;BME280;66339;47.262;17.144;2023-10-09T12:58:13;100527.84;;;20.92;61.78
77281;BME280;66339;47.262;17.144;2023-10-09T13:00:45;100527.53;;;20.94;61.53
77281;BME280;66339;47.262;17.144;2023-10-09T13:03:15;100529.44;;;20.93;61.51